Gamlingay, United Kingdom
Current Conditions -  °F | °C
As of 9:50 AM on Friday 28 Nov 2014 (Local Time) from EGSC Reporting Station
Overcast Overcast  
Wind Chill: 52°   Ceiling: 500
Heat Index: 52°   Visibility: 4mi
Dew Point: 50°   Wind: 6mph
Humidity: 94%   Direction: 60°ENE
Pressure: 29.65"   Gusts: NA
Location:  52.16°N, 0.19°W
Report Text: EGSC 280950Z 06005KT 020V130 7000 OVC005 11/10 Q1004
Loading
Personal Weather Stations






























Interactive Weather Map New forecast layout! Learn more

10-Day Weather Forecast

Advertisements
Track Severe Weather on mobile